sensor_id;sensor_type;location;lat;lon;timestamp;P1;durP1;ratioP1;P2;durP2;ratioP2
50066;SDS011;35952;52.524;13.340;2023-02-15T00:02:14;44.70;;;23.03;;
50066;SDS011;35952;52.524;13.340;2023-02-15T00:04:40;40.80;;;24.00;;
50066;SDS011;35952;52.524;13.340;2023-02-15T00:07:14;38.00;;;21.57;;
50066;SDS011;35952;52.524;13.340;2023-02-15T00:09:41;38.67;;;21.70;;
50066;SDS011;35952;52.524;13.340;2023-02-15T00:12:08;39.57;;;22.87;;
50066;SDS011;35952;52.524;13.340;2023-02-15T00:14:34;41.60;;;21.57;;
50066;SDS011;35952;52.524;13.340;2023-02-15T00:17:00;37.27;;;22.10;;
50066;SDS011;35952;52.524;13.340;2023-02-15T00:19:26;42.10;;;24.10;;
50066;SDS011;35952;52.524;13.340;2023-02-15T00:21:51;37.30;;;22.80;;
50066;SDS011;35952;52.524;13.340;2023-02-15T00:24:17;30.73;;;19.93;;
50066;SDS011;35952;52.524;13.340;2023-02-15T00:26:46;35.30;;;23.77;;
50066;SDS011;35952;52.524;13.340;2023-02-15T00:29:12;35.60;;;21.13;;
50066;SDS011;35952;52.524;13.340;2023-02-15T00:31:39;40.53;;;23.13;;
50066;SDS011;35952;52.524;13.340;2023-02-15T00:34:06;42.53;;;22.90;;
50066;SDS011;35952;52.524;13.340;2023-02-15T00:36:43;46.87;;;24.40;;
50066;SDS011;35952;52.524;13.340;2023-02-15T00:39:10;39.43;;;22.23;;
50066;SDS011;35952;52.524;13.340;2023-02-15T00:44:26;45.00;;;25.23;;
50066;SDS011;35952;52.524;13.340;2023-02-15T00:46:52;42.83;;;23.90;;
50066;SDS011;35952;52.524;13.340;2023-02-15T00:49:17;47.57;;;24.93;;
50066;SDS011;35952;52.524;13.340;2023-02-15T00:51:42;39.40;;;23.17;;
50066;SDS011;35952;52.524;13.340;2023-02-15T00:54:08;45.93;;;24.70;;
50066;SDS011;35952;52.524;13.340;2023-02-15T00:56:33;42.10;;;22.50;;
50066;SDS011;35952;52.524;13.340;2023-02-15T00:58:59;44.57;;;24.23;;
50066;SDS011;35952;52.524;13.340;2023-02-15T01:01:25;43.33;;;24.57;;
50066;SDS011;35952;52.524;13.340;2023-02-15T01:03:50;38.70;;;23.20;;
50066;SDS011;35952;52.524;13.340;2023-02-15T01:06:16;46.07;;;25.47;;
50066;SDS011;35952;52.524;13.340;2023-02-15T01:08:42;51.60;;;26.67;;
50066;SDS011;35952;52.524;13.340;2023-02-15T01:11:10;40.03;;;23.83;;
50066;SDS011;35952;52.524;13.340;2023-02-15T01:13:37;43.40;;;24.60;;
50066;SDS011;35952;52.524;13.340;2023-02-15T01:16:06;45.60;;;24.20;;
50066;SDS011;35952;52.524;13.340;2023-02-15T01:18:32;43.87;;;24.83;;
50066;SDS011;35952;52.524;13.340;2023-02-15T01:20:58;37.47;;;22.03;;
50066;SDS011;35952;52.524;13.340;2023-02-15T01:23:23;36.07;;;22.97;;
50066;SDS011;35952;52.524;13.340;2023-02-15T01:25:49;40.37;;;24.57;;
50066;SDS011;35952;52.524;13.340;2023-02-15T01:28:14;47.43;;;26.77;;
50066;SDS011;35952;52.524;13.340;2023-02-15T01:30:40;41.50;;;26.77;;
50066;SDS011;35952;52.524;13.340;2023-02-15T01:33:05;41.83;;;23.30;;
50066;SDS011;35952;52.524;13.340;2023-02-15T01:35:31;48.33;;;25.03;;
50066;SDS011;35952;52.524;13.340;2023-02-15T01:37:57;46.27;;;25.23;;
50066;SDS011;35952;52.524;13.340;2023-02-15T01:40:23;50.53;;;26.10;;
50066;SDS011;35952;52.524;13.340;2023-02-15T01:42:52;46.57;;;25.47;;
50066;SDS011;35952;52.524;13.340;2023-02-15T01:45:29;45.47;;;26.07;;
50066;SDS011;35952;52.524;13.340;2023-02-15T01:48:14;47.33;;;24.83;;
50066;SDS011;35952;52.524;13.340;2023-02-15T01:50:47;51.33;;;26.63;;
50066;SDS011;35952;52.524;13.340;2023-02-15T01:53:34;49.83;;;27.37;;
50066;SDS011;35952;52.524;13.340;2023-02-15T01:56:08;49.20;;;26.93;;
50066;SDS011;35952;52.524;13.340;2023-02-15T01:58:37;42.43;;;22.73;;
50066;SDS011;35952;52.524;13.340;2023-02-15T02:01:03;47.50;;;26.00;;
50066;SDS011;35952;52.524;13.340;2023-02-15T02:03:52;48.63;;;27.03;;
50066;SDS011;35952;52.524;13.340;2023-02-15T02:06:32;47.50;;;25.90;;
50066;SDS011;35952;52.524;13.340;2023-02-15T02:08:59;51.23;;;27.03;;
50066;SDS011;35952;52.524;13.340;2023-02-15T02:11:24;51.43;;;27.60;;
50066;SDS011;35952;52.524;13.340;2023-02-15T02:13:50;47.27;;;29.00;;
50066;SDS011;35952;52.524;13.340;2023-02-15T02:16:25;50.30;;;27.67;;
50066;SDS011;35952;52.524;13.340;2023-02-15T02:19:10;48.90;;;27.43;;
50066;SDS011;35952;52.524;13.340;2023-02-15T02:21:52;48.00;;;26.80;;
50066;SDS011;35952;52.524;13.340;2023-02-15T02:32:50;53.00;;;29.30;;
50066;SDS011;35952;52.524;13.340;2023-02-15T02:35:34;55.47;;;27.10;;
50066;SDS011;35952;52.524;13.340;2023-02-15T02:38:27;55.43;;;28.80;;
50066;SDS011;35952;52.524;13.340;2023-02-15T02:41:13;54.53;;;30.43;;
50066;SDS011;35952;52.524;13.340;2023-02-15T02:46:54;54.20;;;28.40;;
50066;SDS011;35952;52.524;13.340;2023-02-15T02:49:39;55.90;;;29.30;;
50066;SDS011;35952;52.524;13.340;2023-02-15T02:52:51;53.70;;;29.20;;
50066;SDS011;35952;52.524;13.340;2023-02-15T02:55:06;58.27;;;29.87;;
50066;SDS011;35952;52.524;13.340;2023-02-15T02:58:18;56.33;;;29.03;;
50066;SDS011;35952;52.524;13.340;2023-02-15T03:01:02;52.83;;;29.30;;
50066;SDS011;35952;52.524;13.340;2023-02-15T03:03:42;55.43;;;29.43;;
50066;SDS011;35952;52.524;13.340;2023-02-15T03:06:12;53.83;;;28.57;;
50066;SDS011;35952;52.524;13.340;2023-02-15T03:08:47;59.40;;;30.33;;
50066;SDS011;35952;52.524;13.340;2023-02-15T03:11:16;51.37;;;28.10;;
50066;SDS011;35952;52.524;13.340;2023-02-15T03:13:42;59.63;;;29.83;;
50066;SDS011;35952;52.524;13.340;2023-02-15T03:16:11;57.63;;;29.70;;
50066;SDS011;35952;52.524;13.340;2023-02-15T03:19:11;57.47;;;30.70;;
50066;SDS011;35952;52.524;13.340;2023-02-15T03:21:44;62.93;;;28.63;;
50066;SDS011;35952;52.524;13.340;2023-02-15T03:24:15;58.70;;;32.80;;
50066;SDS011;35952;52.524;13.340;2023-02-15T03:26:45;67.17;;;35.60;;
50066;SDS011;35952;52.524;13.340;2023-02-15T03:29:13;62.80;;;33.33;;
50066;SDS011;35952;52.524;13.340;2023-02-15T03:31:41;62.83;;;34.23;;
50066;SDS011;35952;52.524;13.340;2023-02-15T03:34:11;68.77;;;34.57;;
50066;SDS011;35952;52.524;13.340;2023-02-15T03:36:44;66.43;;;34.20;;
50066;SDS011;35952;52.524;13.340;2023-02-15T03:41:53;65.50;;;32.20;;
50066;SDS011;35952;52.524;13.340;2023-02-15T03:44:32;60.83;;;32.00;;
50066;SDS011;35952;52.524;13.340;2023-02-15T03:47:08;67.73;;;34.30;;
50066;SDS011;35952;52.524;13.340;2023-02-15T03:52:12;72.03;;;34.00;;
50066;SDS011;35952;52.524;13.340;2023-02-15T03:54:39;62.97;;;33.53;;
50066;SDS011;35952;52.524;13.340;2023-02-15T04:00:00;70.80;;;35.47;;
50066;SDS011;35952;52.524;13.340;2023-02-15T04:05:34;69.22;;;34.60;;
50066;SDS011;35952;52.524;13.340;2023-02-15T04:08:00;60.33;;;32.37;;
50066;SDS011;35952;52.524;13.340;2023-02-15T04:10:26;58.73;;;31.13;;
50066;SDS011;35952;52.524;13.340;2023-02-15T04:13:10;65.65;;;31.77;;
50066;SDS011;35952;52.524;13.340;2023-02-15T04:15:35;66.33;;;32.53;;
50066;SDS011;35952;52.524;13.340;2023-02-15T04:18:20;56.50;;;30.73;;
50066;SDS011;35952;52.524;13.340;2023-02-15T04:20:45;60.27;;;33.20;;
50066;SDS011;35952;52.524;13.340;2023-02-15T04:23:30;65.33;;;32.37;;
50066;SDS011;35952;52.524;13.340;2023-02-15T04:26:14;73.80;;;34.67;;
50066;SDS011;35952;52.524;13.340;2023-02-15T04:28:40;62.70;;;33.73;;
50066;SDS011;35952;52.524;13.340;2023-02-15T04:31:06;74.50;;;34.60;;
50066;SDS011;35952;52.524;13.340;2023-02-15T04:33:31;66.57;;;33.77;;
50066;SDS011;35952;52.524;13.340;2023-02-15T04:35:58;67.17;;;34.20;;
50066;SDS011;35952;52.524;13.340;2023-02-15T04:38:23;66.95;;;34.47;;
50066;SDS011;35952;52.524;13.340;2023-02-15T04:40:50;66.90;;;35.70;;
50066;SDS011;35952;52.524;13.340;2023-02-15T04:43:16;78.25;;;35.72;;
50066;SDS011;35952;52.524;13.340;2023-02-15T04:45:46;68.25;;;32.17;;
50066;SDS011;35952;52.524;13.340;2023-02-15T04:48:16;73.40;;;34.97;;
50066;SDS011;35952;52.524;13.340;2023-02-15T04:50:42;73.65;;;32.95;;
50066;SDS011;35952;52.524;13.340;2023-02-15T04:53:08;68.38;;;34.25;;
50066;SDS011;35952;52.524;13.340;2023-02-15T04:55:33;77.83;;;33.50;;
50066;SDS011;35952;52.524;13.340;2023-02-15T04:57:59;82.23;;;38.27;;
50066;SDS011;35952;52.524;13.340;2023-02-15T05:00:24;66.33;;;32.87;;
50066;SDS011;35952;52.524;13.340;2023-02-15T05:02:50;65.33;;;33.17;;
50066;SDS011;35952;52.524;13.340;2023-02-15T05:05:15;76.77;;;32.93;;
50066;SDS011;35952;52.524;13.340;2023-02-15T05:07:41;63.17;;;33.97;;
50066;SDS011;35952;52.524;13.340;2023-02-15T05:10:06;69.87;;;33.20;;
50066;SDS011;35952;52.524;13.340;2023-02-15T05:12:32;60.58;;;31.92;;
50066;SDS011;35952;52.524;13.340;2023-02-15T05:14:58;59.67;;;32.17;;
50066;SDS011;35952;52.524;13.340;2023-02-15T05:17:23;70.27;;;34.33;;
50066;SDS011;35952;52.524;13.340;2023-02-15T05:19:49;67.43;;;32.63;;
50066;SDS011;35952;52.524;13.340;2023-02-15T05:22:14;65.77;;;33.77;;
50066;SDS011;35952;52.524;13.340;2023-02-15T05:24:40;74.30;;;34.17;;
50066;SDS011;35952;52.524;13.340;2023-02-15T05:27:24;62.58;;;32.83;;
50066;SDS011;35952;52.524;13.340;2023-02-15T05:30:08;64.45;;;31.33;;
50066;SDS011;35952;52.524;13.340;2023-02-15T05:32:36;71.05;;;31.95;;
50066;SDS011;35952;52.524;13.340;2023-02-15T05:35:03;70.28;;;34.70;;
50066;SDS011;35952;52.524;13.340;2023-02-15T05:37:29;69.13;;;34.92;;
50066;SDS011;35952;52.524;13.340;2023-02-15T05:39:54;63.83;;;32.37;;
50066;SDS011;35952;52.524;13.340;2023-02-15T05:42:19;70.77;;;33.90;;
50066;SDS011;35952;52.524;13.340;2023-02-15T05:44:45;73.63;;;34.13;;
50066;SDS011;35952;52.524;13.340;2023-02-15T05:47:10;75.03;;;32.73;;
50066;SDS011;35952;52.524;13.340;2023-02-15T05:49:36;73.47;;;33.77;;
50066;SDS011;35952;52.524;13.340;2023-02-15T05:52:02;68.67;;;34.03;;
50066;SDS011;35952;52.524;13.340;2023-02-15T05:54:28;62.65;;;32.67;;
50066;SDS011;35952;52.524;13.340;2023-02-15T05:56:53;63.43;;;33.57;;
50066;SDS011;35952;52.524;13.340;2023-02-15T05:59:19;63.60;;;31.53;;
50066;SDS011;35952;52.524;13.340;2023-02-15T06:01:44;69.10;;;32.97;;
50066;SDS011;35952;52.524;13.340;2023-02-15T06:04:10;58.53;;;30.87;;
50066;SDS011;35952;52.524;13.340;2023-02-15T06:06:35;60.73;;;31.67;;
50066;SDS011;35952;52.524;13.340;2023-02-15T06:09:01;71.07;;;32.60;;
50066;SDS011;35952;52.524;13.340;2023-02-15T06:11:27;74.30;;;33.57;;
50066;SDS011;35952;52.524;13.340;2023-02-15T06:13:52;70.33;;;35.07;;
50066;SDS011;35952;52.524;13.340;2023-02-15T06:16:17;73.70;;;32.60;;
50066;SDS011;35952;52.524;13.340;2023-02-15T06:18:43;67.03;;;33.97;;
50066;SDS011;35952;52.524;13.340;2023-02-15T06:21:08;76.00;;;34.43;;
50066;SDS011;35952;52.524;13.340;2023-02-15T06:23:34;86.43;;;35.07;;
50066;SDS011;35952;52.524;13.340;2023-02-15T06:26:00;77.73;;;33.80;;
50066;SDS011;35952;52.524;13.340;2023-02-15T06:28:25;77.27;;;38.50;;
50066;SDS011;35952;52.524;13.340;2023-02-15T06:30:51;84.57;;;37.20;;
50066;SDS011;35952;52.524;13.340;2023-02-15T06:33:17;77.63;;;34.30;;
50066;SDS011;35952;52.524;13.340;2023-02-15T06:35:42;85.07;;;34.57;;
50066;SDS011;35952;52.524;13.340;2023-02-15T06:38:08;77.03;;;37.10;;
50066;SDS011;35952;52.524;13.340;2023-02-15T06:40:33;76.83;;;34.80;;
50066;SDS011;35952;52.524;13.340;2023-02-15T06:42:59;77.53;;;36.73;;
50066;SDS011;35952;52.524;13.340;2023-02-15T06:45:24;78.37;;;36.03;;
50066;SDS011;35952;52.524;13.340;2023-02-15T06:47:50;70.40;;;34.30;;
50066;SDS011;35952;52.524;13.340;2023-02-15T06:50:15;78.73;;;35.03;;
50066;SDS011;35952;52.524;13.340;2023-02-15T06:52:41;99.83;;;35.87;;
50066;SDS011;35952;52.524;13.340;2023-02-15T06:55:06;81.00;;;36.77;;
50066;SDS011;35952;52.524;13.340;2023-02-15T06:57:32;83.17;;;34.73;;
50066;SDS011;35952;52.524;13.340;2023-02-15T06:59:58;81.67;;;33.43;;
50066;SDS011;35952;52.524;13.340;2023-02-15T07:02:24;80.63;;;37.50;;
50066;SDS011;35952;52.524;13.340;2023-02-15T07:04:49;93.33;;;37.87;;
50066;SDS011;35952;52.524;13.340;2023-02-15T07:07:15;87.70;;;36.90;;
50066;SDS011;35952;52.524;13.340;2023-02-15T07:09:40;94.33;;;35.43;;
50066;SDS011;35952;52.524;13.340;2023-02-15T07:12:06;87.80;;;35.80;;
50066;SDS011;35952;52.524;13.340;2023-02-15T07:14:50;78.05;;;35.47;;
50066;SDS011;35952;52.524;13.340;2023-02-15T07:17:16;87.28;;;34.45;;
50066;SDS011;35952;52.524;13.340;2023-02-15T07:19:42;99.10;;;34.70;;
50066;SDS011;35952;52.524;13.340;2023-02-15T07:22:08;84.33;;;34.83;;
50066;SDS011;35952;52.524;13.340;2023-02-15T07:24:33;88.97;;;37.17;;
50066;SDS011;35952;52.524;13.340;2023-02-15T07:26:59;86.73;;;34.63;;
50066;SDS011;35952;52.524;13.340;2023-02-15T07:29:24;72.63;;;32.43;;
50066;SDS011;35952;52.524;13.340;2023-02-15T07:31:50;80.53;;;34.13;;
50066;SDS011;35952;52.524;13.340;2023-02-15T07:34:16;73.63;;;33.20;;
50066;SDS011;35952;52.524;13.340;2023-02-15T07:36:41;69.80;;;30.93;;
50066;SDS011;35952;52.524;13.340;2023-02-15T07:39:09;70.00;;;31.65;;
50066;SDS011;35952;52.524;13.340;2023-02-15T07:41:35;63.83;;;33.50;;
50066;SDS011;35952;52.524;13.340;2023-02-15T07:44:01;68.80;;;31.97;;
50066;SDS011;35952;52.524;13.340;2023-02-15T07:46:26;70.67;;;31.63;;
50066;SDS011;35952;52.524;13.340;2023-02-15T07:48:52;64.32;;;33.22;;
50066;SDS011;35952;52.524;13.340;2023-02-15T07:51:18;80.33;;;35.80;;
50066;SDS011;35952;52.524;13.340;2023-02-15T07:53:44;72.30;;;33.27;;
50066;SDS011;35952;52.524;13.340;2023-02-15T07:56:10;68.07;;;30.30;;
50066;SDS011;35952;52.524;13.340;2023-02-15T07:58:38;73.05;;;31.25;;
50066;SDS011;35952;52.524;13.340;2023-02-15T08:01:15;65.00;;;30.52;;
50066;SDS011;35952;52.524;13.340;2023-02-15T08:03:42;73.63;;;29.92;;
50066;SDS011;35952;52.524;13.340;2023-02-15T08:06:08;89.17;;;33.67;;
50066;SDS011;35952;52.524;13.340;2023-02-15T08:08:37;69.15;;;31.48;;
50066;SDS011;35952;52.524;13.340;2023-02-15T08:11:04;67.55;;;31.52;;
50066;SDS011;35952;52.524;13.340;2023-02-15T08:13:49;67.10;;;33.15;;
50066;SDS011;35952;52.524;13.340;2023-02-15T08:16:41;75.55;;;34.55;;
50066;SDS011;35952;52.524;13.340;2023-02-15T08:19:48;75.72;;;31.77;;
50066;SDS011;35952;52.524;13.340;2023-02-15T08:22:04;65.97;;;33.00;;
50066;SDS011;35952;52.524;13.340;2023-02-15T08:24:31;73.90;;;30.50;;
50066;SDS011;35952;52.524;13.340;2023-02-15T08:26:58;69.95;;;31.95;;
50066;SDS011;35952;52.524;13.340;2023-02-15T08:29:27;71.75;;;31.67;;
50066;SDS011;35952;52.524;13.340;2023-02-15T08:31:54;67.15;;;31.48;;
50066;SDS011;35952;52.524;13.340;2023-02-15T08:34:26;64.20;;;29.70;;
50066;SDS011;35952;52.524;13.340;2023-02-15T08:36:53;70.97;;;32.13;;
50066;SDS011;35952;52.524;13.340;2023-02-15T08:39:18;65.23;;;32.27;;
50066;SDS011;35952;52.524;13.340;2023-02-15T08:41:45;64.83;;;29.07;;
50066;SDS011;35952;52.524;13.340;2023-02-15T08:44:11;58.22;;;28.48;;
50066;SDS011;35952;52.524;13.340;2023-02-15T08:46:39;72.25;;;30.33;;
50066;SDS011;35952;52.524;13.340;2023-02-15T08:49:06;64.57;;;30.15;;
50066;SDS011;35952;52.524;13.340;2023-02-15T08:51:33;62.17;;;31.40;;
50066;SDS011;35952;52.524;13.340;2023-02-15T08:54:02;68.47;;;28.60;;
50066;SDS011;35952;52.524;13.340;2023-02-15T08:56:32;64.90;;;33.28;;
50066;SDS011;35952;52.524;13.340;2023-02-15T08:58:59;61.45;;;29.35;;
50066;SDS011;35952;52.524;13.340;2023-02-15T09:01:25;59.70;;;31.17;;
50066;SDS011;35952;52.524;13.340;2023-02-15T09:04:00;51.72;;;27.33;;
50066;SDS011;35952;52.524;13.340;2023-02-15T09:06:27;54.40;;;26.55;;
50066;SDS011;35952;52.524;13.340;2023-02-15T09:08:53;54.25;;;28.77;;
50066;SDS011;35952;52.524;13.340;2023-02-15T09:11:24;58.20;;;29.80;;
50066;SDS011;35952;52.524;13.340;2023-02-15T09:13:55;51.55;;;30.00;;
50066;SDS011;35952;52.524;13.340;2023-02-15T09:16:23;58.13;;;29.98;;
50066;SDS011;35952;52.524;13.340;2023-02-15T09:18:50;51.28;;;25.63;;
50066;SDS011;35952;52.524;13.340;2023-02-15T09:21:17;53.50;;;28.37;;
50066;SDS011;35952;52.524;13.340;2023-02-15T09:23:45;53.57;;;28.10;;
50066;SDS011;35952;52.524;13.340;2023-02-15T09:26:13;51.20;;;27.13;;
50066;SDS011;35952;52.524;13.340;2023-02-15T09:28:40;45.83;;;24.97;;
50066;SDS011;35952;52.524;13.340;2023-02-15T09:31:13;48.13;;;25.30;;
50066;SDS011;35952;52.524;13.340;2023-02-15T09:33:41;47.90;;;25.67;;
50066;SDS011;35952;52.524;13.340;2023-02-15T09:36:18;46.77;;;27.80;;
50066;SDS011;35952;52.524;13.340;2023-02-15T09:38:44;48.53;;;27.20;;
50066;SDS011;35952;52.524;13.340;2023-02-15T09:41:15;49.83;;;26.60;;
50066;SDS011;35952;52.524;13.340;2023-02-15T09:52:01;46.80;;;25.20;;
50066;SDS011;35952;52.524;13.340;2023-02-15T09:54:49;46.77;;;25.37;;
50066;SDS011;35952;52.524;13.340;2023-02-15T10:00:06;51.50;;;28.67;;
50066;SDS011;35952;52.524;13.340;2023-02-15T10:07:54;46.70;;;26.63;;
50066;SDS011;35952;52.524;13.340;2023-02-15T10:10:42;44.47;;;25.63;;
50066;SDS011;35952;52.524;13.340;2023-02-15T10:23:56;43.13;;;26.33;;
50066;SDS011;35952;52.524;13.340;2023-02-15T10:26:26;41.73;;;25.73;;
50066;SDS011;35952;52.524;13.340;2023-02-15T10:29:03;46.67;;;25.60;;
50066;SDS011;35952;52.524;13.340;2023-02-15T10:31:51;47.77;;;27.33;;
50066;SDS011;35952;52.524;13.340;2023-02-15T10:34:33;40.37;;;25.53;;
50066;SDS011;35952;52.524;13.340;2023-02-15T10:37:15;42.37;;;26.10;;
50066;SDS011;35952;52.524;13.340;2023-02-15T10:43:05;42.33;;;24.30;;
50066;SDS011;35952;52.524;13.340;2023-02-15T10:51:04;40.20;;;25.17;;
50066;SDS011;35952;52.524;13.340;2023-02-15T10:56:36;43.97;;;28.27;;
50066;SDS011;35952;52.524;13.340;2023-02-15T10:59:14;45.63;;;26.53;;
50066;SDS011;35952;52.524;13.340;2023-02-15T11:01:55;41.50;;;25.63;;
50066;SDS011;35952;52.524;13.340;2023-02-15T11:04:52;49.90;;;28.50;;
50066;SDS011;35952;52.524;13.340;2023-02-15T11:07:24;50.53;;;28.07;;
50066;SDS011;35952;52.524;13.340;2023-02-15T11:12:48;42.23;;;26.77;;
50066;SDS011;35952;52.524;13.340;2023-02-15T11:18:26;42.40;;;24.87;;
50066;SDS011;35952;52.524;13.340;2023-02-15T11:21:22;46.83;;;25.63;;
50066;SDS011;35952;52.524;13.340;2023-02-15T11:23:59;44.07;;;25.67;;
50066;SDS011;35952;52.524;13.340;2023-02-15T11:26:31;39.03;;;24.17;;
50066;SDS011;35952;52.524;13.340;2023-02-15T11:29:01;41.27;;;24.27;;
50066;SDS011;35952;52.524;13.340;2023-02-15T11:31:43;40.90;;;25.60;;
50066;SDS011;35952;52.524;13.340;2023-02-15T11:34:17;39.00;;;23.83;;
50066;SDS011;35952;52.524;13.340;2023-02-15T11:37:05;35.37;;;22.33;;
50066;SDS011;35952;52.524;13.340;2023-02-15T11:39:35;47.30;;;25.20;;
50066;SDS011;35952;52.524;13.340;2023-02-15T11:42:02;37.40;;;23.67;;
50066;SDS011;35952;52.524;13.340;2023-02-15T11:47:02;39.47;;;23.30;;
50066;SDS011;35952;52.524;13.340;2023-02-15T11:49:31;45.20;;;26.13;;
50066;SDS011;35952;52.524;13.340;2023-02-15T11:52:02;41.20;;;24.27;;
50066;SDS011;35952;52.524;13.340;2023-02-15T11:54:40;37.60;;;24.87;;
50066;SDS011;35952;52.524;13.340;2023-02-15T11:57:14;37.77;;;24.50;;
50066;SDS011;35952;52.524;13.340;2023-02-15T11:59:41;43.03;;;25.77;;
50066;SDS011;35952;52.524;13.340;2023-02-15T12:02:17;42.53;;;25.53;;
50066;SDS011;35952;52.524;13.340;2023-02-15T12:04:52;44.67;;;26.50;;
50066;SDS011;35952;52.524;13.340;2023-02-15T12:07:32;36.83;;;23.97;;
50066;SDS011;35952;52.524;13.340;2023-02-15T12:10:05;40.53;;;24.63;;
50066;SDS011;35952;52.524;13.340;2023-02-15T12:12:39;38.40;;;24.17;;
50066;SDS011;35952;52.524;13.340;2023-02-15T12:15:08;38.60;;;24.50;;
50066;SDS011;35952;52.524;13.340;2023-02-15T12:17:38;36.17;;;24.77;;
50066;SDS011;35952;52.524;13.340;2023-02-15T12:22:40;37.70;;;21.57;;
50066;SDS011;35952;52.524;13.340;2023-02-15T12:25:23;36.40;;;23.23;;
50066;SDS011;35952;52.524;13.340;2023-02-15T12:27:54;30.60;;;20.23;;
50066;SDS011;35952;52.524;13.340;2023-02-15T12:30:25;37.03;;;22.70;;
50066;SDS011;35952;52.524;13.340;2023-02-15T12:33:13;34.80;;;20.60;;
50066;SDS011;35952;52.524;13.340;2023-02-15T12:35:54;33.30;;;21.10;;
50066;SDS011;35952;52.524;13.340;2023-02-15T12:39:09;32.00;;;20.80;;
50066;SDS011;35952;52.524;13.340;2023-02-15T12:41:45;37.93;;;22.83;;
50066;SDS011;35952;52.524;13.340;2023-02-15T12:44:23;35.10;;;21.10;;
50066;SDS011;35952;52.524;13.340;2023-02-15T12:46:55;33.53;;;22.37;;
50066;SDS011;35952;52.524;13.340;2023-02-15T12:49:24;31.87;;;20.30;;
50066;SDS011;35952;52.524;13.340;2023-02-15T12:51:55;29.33;;;21.90;;
50066;SDS011;35952;52.524;13.340;2023-02-15T12:54:26;35.93;;;24.60;;
50066;SDS011;35952;52.524;13.340;2023-02-15T12:56:56;34.83;;;22.63;;
50066;SDS011;35952;52.524;13.340;2023-02-15T12:59:24;31.10;;;22.60;;
50066;SDS011;35952;52.524;13.340;2023-02-15T13:01:53;31.03;;;22.57;;
50066;SDS011;35952;52.524;13.340;2023-02-15T13:04:23;38.60;;;21.97;;
50066;SDS011;35952;52.524;13.340;2023-02-15T13:06:55;32.17;;;21.70;;
50066;SDS011;35952;52.524;13.340;2023-02-15T13:11:56;30.17;;;19.93;;
50066;SDS011;35952;52.524;13.340;2023-02-15T13:14:33;29.30;;;21.83;;
50066;SDS011;35952;52.524;13.340;2023-02-15T13:17:00;27.50;;;18.00;;
50066;SDS011;35952;52.524;13.340;2023-02-15T13:22:07;33.97;;;19.80;;
50066;SDS011;35952;52.524;13.340;2023-02-15T13:24:39;26.30;;;19.43;;
50066;SDS011;35952;52.524;13.340;2023-02-15T13:27:13;29.67;;;20.80;;
50066;SDS011;35952;52.524;13.340;2023-02-15T13:29:46;31.03;;;20.83;;
50066;SDS011;35952;52.524;13.340;2023-02-15T13:32:48;31.47;;;20.03;;
50066;SDS011;35952;52.524;13.340;2023-02-15T13:35:14;31.00;;;19.33;;
50066;SDS011;35952;52.524;13.340;2023-02-15T13:37:45;31.80;;;21.77;;
50066;SDS011;35952;52.524;13.340;2023-02-15T13:40:33;38.13;;;22.50;;
50066;SDS011;35952;52.524;13.340;2023-02-15T13:43:17;31.60;;;21.03;;
50066;SDS011;35952;52.524;13.340;2023-02-15T13:46:07;31.57;;;19.10;;
50066;SDS011;35952;52.524;13.340;2023-02-15T13:48:58;31.97;;;20.77;;
50066;SDS011;35952;52.524;13.340;2023-02-15T13:51:40;29.07;;;19.73;;
50066;SDS011;35952;52.524;13.340;2023-02-15T13:54:33;29.30;;;19.90;;
50066;SDS011;35952;52.524;13.340;2023-02-15T14:00:04;27.23;;;19.20;;
50066;SDS011;35952;52.524;13.340;2023-02-15T14:06:00;30.30;;;20.10;;
50066;SDS011;35952;52.524;13.340;2023-02-15T14:08:51;31.37;;;19.60;;
50066;SDS011;35952;52.524;13.340;2023-02-15T14:11:44;33.63;;;22.60;;
50066;SDS011;35952;52.524;13.340;2023-02-15T14:14:21;30.03;;;20.73;;
50066;SDS011;35952;52.524;13.340;2023-02-15T14:16:59;26.77;;;19.03;;
50066;SDS011;35952;52.524;13.340;2023-02-15T14:19:46;27.87;;;20.50;;
50066;SDS011;35952;52.524;13.340;2023-02-15T14:30:41;27.07;;;20.47;;
50066;SDS011;35952;52.524;13.340;2023-02-15T14:35:40;25.07;;;18.67;;
50066;SDS011;35952;52.524;13.340;2023-02-15T14:38:15;29.80;;;21.37;;
50066;SDS011;35952;52.524;13.340;2023-02-15T14:49:43;35.90;;;20.40;;
50066;SDS011;35952;52.524;13.340;2023-02-15T14:56:46;24.23;;;18.53;;
50066;SDS011;35952;52.524;13.340;2023-02-15T15:07:44;24.83;;;17.90;;
50066;SDS011;35952;52.524;13.340;2023-02-15T15:12:43;24.43;;;19.40;;
50066;SDS011;35952;52.524;13.340;2023-02-15T15:15:37;28.93;;;17.97;;
50066;SDS011;35952;52.524;13.340;2023-02-15T15:21:11;23.20;;;17.33;;
50066;SDS011;35952;52.524;13.340;2023-02-15T15:35:36;27.70;;;18.87;;
50066;SDS011;35952;52.524;13.340;2023-02-15T15:48:51;25.63;;;17.93;;
50066;SDS011;35952;52.524;13.340;2023-02-15T15:51:18;28.87;;;19.40;;
50066;SDS011;35952;52.524;13.340;2023-02-15T15:53:47;29.60;;;17.70;;
50066;SDS011;35952;52.524;13.340;2023-02-15T15:56:20;27.37;;;19.10;;
50066;SDS011;35952;52.524;13.340;2023-02-15T15:58:54;26.40;;;18.20;;
50066;SDS011;35952;52.524;13.340;2023-02-15T16:01:26;25.83;;;18.87;;
50066;SDS011;35952;52.524;13.340;2023-02-15T16:03:55;27.50;;;18.03;;
50066;SDS011;35952;52.524;13.340;2023-02-15T16:06:33;26.33;;;17.50;;
50066;SDS011;35952;52.524;13.340;2023-02-15T16:09:10;21.83;;;16.50;;
50066;SDS011;35952;52.524;13.340;2023-02-15T16:11:38;27.40;;;17.97;;
50066;SDS011;35952;52.524;13.340;2023-02-15T16:14:10;22.43;;;17.43;;
50066;SDS011;35952;52.524;13.340;2023-02-15T16:16:48;24.73;;;17.03;;
50066;SDS011;35952;52.524;13.340;2023-02-15T16:19:23;24.80;;;17.33;;
50066;SDS011;35952;52.524;13.340;2023-02-15T16:21:52;27.77;;;16.83;;
50066;SDS011;35952;52.524;13.340;2023-02-15T16:24:42;24.00;;;17.10;;
50066;SDS011;35952;52.524;13.340;2023-02-15T16:27:36;23.63;;;18.50;;
50066;SDS011;35952;52.524;13.340;2023-02-15T16:33:04;29.17;;;19.60;;
50066;SDS011;35952;52.524;13.340;2023-02-15T16:35:41;23.60;;;18.13;;
50066;SDS011;35952;52.524;13.340;2023-02-15T16:38:18;28.03;;;18.90;;
50066;SDS011;35952;52.524;13.340;2023-02-15T16:40:52;30.20;;;20.23;;
50066;SDS011;35952;52.524;13.340;2023-02-15T16:43:26;26.20;;;17.43;;
50066;SDS011;35952;52.524;13.340;2023-02-15T16:46:06;24.40;;;18.87;;
50066;SDS011;35952;52.524;13.340;2023-02-15T16:48:39;30.33;;;19.37;;
50066;SDS011;35952;52.524;13.340;2023-02-15T16:51:06;30.60;;;18.87;;
50066;SDS011;35952;52.524;13.340;2023-02-15T16:53:33;28.07;;;19.23;;
50066;SDS011;35952;52.524;13.340;2023-02-15T16:56:03;26.00;;;18.37;;
50066;SDS011;35952;52.524;13.340;2023-02-15T17:00:59;30.93;;;20.97;;
50066;SDS011;35952;52.524;13.340;2023-02-15T17:03:27;26.13;;;19.27;;
50066;SDS011;35952;52.524;13.340;2023-02-15T17:05:58;28.60;;;19.10;;
50066;SDS011;35952;52.524;13.340;2023-02-15T17:08:27;26.33;;;19.63;;